sensor_id;sensor_type;location;lat;lon;timestamp;P1;durP1;ratioP1;P2;durP2;ratioP2
59854;SDS011;45732;52.850;6.896;2023-02-19T00:01:11;37.85;;;23.52;;
59854;SDS011;45732;52.850;6.896;2023-02-19T00:03:39;39.67;;;24.63;;
59854;SDS011;45732;52.850;6.896;2023-02-19T00:06:05;38.22;;;23.90;;
59854;SDS011;45732;52.850;6.896;2023-02-19T00:08:34;33.92;;;22.63;;
59854;SDS011;45732;52.850;6.896;2023-02-19T00:11:01;36.70;;;21.55;;
59854;SDS011;45732;52.850;6.896;2023-02-19T00:13:27;36.13;;;21.67;;
59854;SDS011;45732;52.850;6.896;2023-02-19T00:15:53;34.55;;;19.98;;
59854;SDS011;45732;52.850;6.896;2023-02-19T00:18:20;30.60;;;19.60;;
59854;SDS011;45732;52.850;6.896;2023-02-19T00:20:46;27.60;;;18.58;;
59854;SDS011;45732;52.850;6.896;2023-02-19T00:23:12;27.33;;;17.60;;
59854;SDS011;45732;52.850;6.896;2023-02-19T00:25:37;29.75;;;18.08;;
59854;SDS011;45732;52.850;6.896;2023-02-19T00:28:03;25.45;;;16.55;;
59854;SDS011;45732;52.850;6.896;2023-02-19T00:30:29;28.33;;;17.60;;
59854;SDS011;45732;52.850;6.896;2023-02-19T00:32:55;29.23;;;17.45;;
59854;SDS011;45732;52.850;6.896;2023-02-19T00:35:21;30.30;;;18.08;;
59854;SDS011;45732;52.850;6.896;2023-02-19T00:37:46;27.73;;;17.02;;
59854;SDS011;45732;52.850;6.896;2023-02-19T00:40:12;25.83;;;17.67;;
59854;SDS011;45732;52.850;6.896;2023-02-19T00:42:38;33.15;;;18.95;;
59854;SDS011;45732;52.850;6.896;2023-02-19T00:45:04;31.48;;;18.98;;
59854;SDS011;45732;52.850;6.896;2023-02-19T00:47:29;33.50;;;20.25;;
59854;SDS011;45732;52.850;6.896;2023-02-19T00:49:55;32.33;;;20.17;;
59854;SDS011;45732;52.850;6.896;2023-02-19T00:52:21;29.88;;;19.70;;
59854;SDS011;45732;52.850;6.896;2023-02-19T00:54:46;38.63;;;21.67;;
59854;SDS011;45732;52.850;6.896;2023-02-19T00:57:12;36.47;;;22.48;;
59854;SDS011;45732;52.850;6.896;2023-02-19T00:59:38;35.13;;;22.25;;
59854;SDS011;45732;52.850;6.896;2023-02-19T01:02:03;34.80;;;22.10;;
59854;SDS011;45732;52.850;6.896;2023-02-19T01:04:29;37.88;;;22.13;;
59854;SDS011;45732;52.850;6.896;2023-02-19T01:06:55;36.70;;;22.20;;
59854;SDS011;45732;52.850;6.896;2023-02-19T01:09:20;36.17;;;21.73;;
59854;SDS011;45732;52.850;6.896;2023-02-19T01:11:46;37.72;;;23.02;;
59854;SDS011;45732;52.850;6.896;2023-02-19T01:14:12;37.53;;;22.92;;
59854;SDS011;45732;52.850;6.896;2023-02-19T01:16:37;35.65;;;23.55;;
59854;SDS011;45732;52.850;6.896;2023-02-19T01:19:03;35.53;;;22.20;;
59854;SDS011;45732;52.850;6.896;2023-02-19T01:21:29;39.97;;;23.70;;
59854;SDS011;45732;52.850;6.896;2023-02-19T01:23:56;42.15;;;23.33;;
59854;SDS011;45732;52.850;6.896;2023-02-19T01:26:23;39.28;;;22.13;;
59854;SDS011;45732;52.850;6.896;2023-02-19T01:28:51;38.30;;;22.20;;
59854;SDS011;45732;52.850;6.896;2023-02-19T01:31:18;32.75;;;21.70;;
59854;SDS011;45732;52.850;6.896;2023-02-19T01:33:49;32.42;;;21.63;;
59854;SDS011;45732;52.850;6.896;2023-02-19T01:36:17;31.15;;;21.20;;
59854;SDS011;45732;52.850;6.896;2023-02-19T01:38:43;31.45;;;21.17;;
59854;SDS011;45732;52.850;6.896;2023-02-19T01:41:10;33.35;;;21.50;;
59854;SDS011;45732;52.850;6.896;2023-02-19T01:46:52;34.20;;;20.73;;
59854;SDS011;45732;52.850;6.896;2023-02-19T01:49:31;32.92;;;20.70;;
59854;SDS011;45732;52.850;6.896;2023-02-19T01:52:07;36.50;;;20.42;;
59854;SDS011;45732;52.850;6.896;2023-02-19T01:54:38;32.33;;;20.02;;
59854;SDS011;45732;52.850;6.896;2023-02-19T01:57:07;29.23;;;19.15;;
59854;SDS011;45732;52.850;6.896;2023-02-19T01:59:40;32.10;;;19.60;;
59854;SDS011;45732;52.850;6.896;2023-02-19T02:02:06;31.85;;;19.23;;
59854;SDS011;45732;52.850;6.896;2023-02-19T02:04:33;36.40;;;19.15;;
59854;SDS011;45732;52.850;6.896;2023-02-19T02:07:00;28.90;;;17.38;;
59854;SDS011;45732;52.850;6.896;2023-02-19T02:09:48;26.90;;;16.42;;
59854;SDS011;45732;52.850;6.896;2023-02-19T02:12:32;26.08;;;16.15;;
59854;SDS011;45732;52.850;6.896;2023-02-19T02:14:58;29.88;;;17.95;;
59854;SDS011;45732;52.850;6.896;2023-02-19T02:17:32;25.88;;;16.23;;
59854;SDS011;45732;52.850;6.896;2023-02-19T02:28:00;24.70;;;14.07;;
59854;SDS011;45732;52.850;6.896;2023-02-19T02:30:42;25.15;;;13.63;;
59854;SDS011;45732;52.850;6.896;2023-02-19T02:33:13;22.50;;;12.50;;
59854;SDS011;45732;52.850;6.896;2023-02-19T02:35:57;18.67;;;12.07;;
59854;SDS011;45732;52.850;6.896;2023-02-19T02:38:44;22.52;;;12.20;;
59854;SDS011;45732;52.850;6.896;2023-02-19T02:41:11;19.02;;;11.82;;
59854;SDS011;45732;52.850;6.896;2023-02-19T02:43:38;20.35;;;11.73;;
59854;SDS011;45732;52.850;6.896;2023-02-19T02:46:04;24.20;;;12.50;;
59854;SDS011;45732;52.850;6.896;2023-02-19T02:48:34;18.98;;;11.05;;
59854;SDS011;45732;52.850;6.896;2023-02-19T02:56:50;14.35;;;8.48;;
59854;SDS011;45732;52.850;6.896;2023-02-19T02:59:20;16.17;;;8.65;;
59854;SDS011;45732;52.850;6.896;2023-02-19T03:01:53;14.68;;;8.32;;
59854;SDS011;45732;52.850;6.896;2023-02-19T03:10:22;16.83;;;8.43;;
59854;SDS011;45732;52.850;6.896;2023-02-19T03:12:52;14.60;;;8.23;;
59854;SDS011;45732;52.850;6.896;2023-02-19T03:15:40;15.65;;;8.50;;
59854;SDS011;45732;52.850;6.896;2023-02-19T03:18:29;17.95;;;8.75;;
59854;SDS011;45732;52.850;6.896;2023-02-19T03:21:16;13.70;;;7.93;;
59854;SDS011;45732;52.850;6.896;2023-02-19T03:23:45;14.60;;;8.07;;
59854;SDS011;45732;52.850;6.896;2023-02-19T03:26:30;16.17;;;8.05;;
59854;SDS011;45732;52.850;6.896;2023-02-19T03:28:58;15.05;;;8.52;;
59854;SDS011;45732;52.850;6.896;2023-02-19T03:31:43;8.10;;;4.55;;
59854;SDS011;45732;52.850;6.896;2023-02-19T03:34:14;6.22;;;3.58;;
59854;SDS011;45732;52.850;6.896;2023-02-19T03:36:47;5.78;;;3.10;;
59854;SDS011;45732;52.850;6.896;2023-02-19T03:39:21;4.10;;;2.30;;
59854;SDS011;45732;52.850;6.896;2023-02-19T03:44:22;3.70;;;2.13;;
59854;SDS011;45732;52.850;6.896;2023-02-19T03:46:57;5.03;;;2.20;;
59854;SDS011;45732;52.850;6.896;2023-02-19T03:52:19;3.45;;;2.20;;
59854;SDS011;45732;52.850;6.896;2023-02-19T03:55:09;3.13;;;2.00;;
59854;SDS011;45732;52.850;6.896;2023-02-19T03:58:15;5.28;;;2.25;;
59854;SDS011;45732;52.850;6.896;2023-02-19T04:00:52;3.40;;;2.10;;
59854;SDS011;45732;52.850;6.896;2023-02-19T04:03:40;3.58;;;2.28;;
59854;SDS011;45732;52.850;6.896;2023-02-19T04:06:13;5.28;;;2.53;;
59854;SDS011;45732;52.850;6.896;2023-02-19T04:08:46;4.28;;;2.65;;
59854;SDS011;45732;52.850;6.896;2023-02-19T04:11:14;4.45;;;2.50;;
59854;SDS011;45732;52.850;6.896;2023-02-19T04:13:47;5.05;;;2.88;;
59854;SDS011;45732;52.850;6.896;2023-02-19T04:16:37;4.85;;;2.88;;
59854;SDS011;45732;52.850;6.896;2023-02-19T04:19:11;4.43;;;2.70;;
59854;SDS011;45732;52.850;6.896;2023-02-19T04:21:39;4.25;;;2.40;;
59854;SDS011;45732;52.850;6.896;2023-02-19T04:24:08;3.08;;;1.48;;
59854;SDS011;45732;52.850;6.896;2023-02-19T04:26:37;1.83;;;1.30;;
59854;SDS011;45732;52.850;6.896;2023-02-19T04:29:04;1.67;;;1.05;;
59854;SDS011;45732;52.850;6.896;2023-02-19T04:31:30;2.20;;;1.02;;
59854;SDS011;45732;52.850;6.896;2023-02-19T04:33:59;1.70;;;0.98;;
59854;SDS011;45732;52.850;6.896;2023-02-19T04:36:25;1.83;;;1.10;;
59854;SDS011;45732;52.850;6.896;2023-02-19T04:38:51;1.90;;;1.15;;
59854;SDS011;45732;52.850;6.896;2023-02-19T04:41:17;2.47;;;1.33;;
59854;SDS011;45732;52.850;6.896;2023-02-19T04:43:42;2.58;;;1.33;;
59854;SDS011;45732;52.850;6.896;2023-02-19T04:46:08;2.58;;;1.50;;
59854;SDS011;45732;52.850;6.896;2023-02-19T04:48:34;3.25;;;1.80;;
59854;SDS011;45732;52.850;6.896;2023-02-19T04:51:03;3.20;;;1.88;;
59854;SDS011;45732;52.850;6.896;2023-02-19T04:53:29;2.95;;;1.60;;
59854;SDS011;45732;52.850;6.896;2023-02-19T04:55:55;3.30;;;1.30;;
59854;SDS011;45732;52.850;6.896;2023-02-19T04:58:21;4.25;;;2.08;;
59854;SDS011;45732;52.850;6.896;2023-02-19T05:00:50;4.88;;;2.15;;
59854;SDS011;45732;52.850;6.896;2023-02-19T05:03:16;4.28;;;2.40;;
59854;SDS011;45732;52.850;6.896;2023-02-19T05:05:42;5.78;;;2.67;;
59854;SDS011;45732;52.850;6.896;2023-02-19T05:08:08;5.28;;;2.85;;
59854;SDS011;45732;52.850;6.896;2023-02-19T05:10:33;5.60;;;3.00;;
59854;SDS011;45732;52.850;6.896;2023-02-19T05:12:59;5.43;;;2.75;;
59854;SDS011;45732;52.850;6.896;2023-02-19T05:15:25;5.00;;;2.50;;
59854;SDS011;45732;52.850;6.896;2023-02-19T05:17:50;4.85;;;2.60;;
59854;SDS011;45732;52.850;6.896;2023-02-19T05:20:16;4.65;;;2.40;;
59854;SDS011;45732;52.850;6.896;2023-02-19T05:22:42;4.35;;;2.30;;
59854;SDS011;45732;52.850;6.896;2023-02-19T05:25:07;5.07;;;2.53;;
59854;SDS011;45732;52.850;6.896;2023-02-19T05:27:33;6.05;;;2.95;;
59854;SDS011;45732;52.850;6.896;2023-02-19T05:29:59;5.57;;;2.92;;
59854;SDS011;45732;52.850;6.896;2023-02-19T05:32:24;6.00;;;2.80;;
59854;SDS011;45732;52.850;6.896;2023-02-19T05:34:50;7.00;;;3.75;;
59854;SDS011;45732;52.850;6.896;2023-02-19T05:37:16;6.68;;;3.30;;
59854;SDS011;45732;52.850;6.896;2023-02-19T05:39:41;6.38;;;3.08;;
59854;SDS011;45732;52.850;6.896;2023-02-19T05:42:07;6.75;;;2.78;;
59854;SDS011;45732;52.850;6.896;2023-02-19T05:44:33;8.00;;;3.78;;
59854;SDS011;45732;52.850;6.896;2023-02-19T05:46:58;7.45;;;3.17;;
59854;SDS011;45732;52.850;6.896;2023-02-19T05:49:24;7.00;;;3.20;;
59854;SDS011;45732;52.850;6.896;2023-02-19T05:51:50;6.35;;;3.33;;
59854;SDS011;45732;52.850;6.896;2023-02-19T05:54:16;6.65;;;2.97;;
59854;SDS011;45732;52.850;6.896;2023-02-19T05:56:42;5.47;;;2.60;;
59854;SDS011;45732;52.850;6.896;2023-02-19T05:59:15;5.88;;;2.85;;
59854;SDS011;45732;52.850;6.896;2023-02-19T06:01:42;5.95;;;2.92;;
59854;SDS011;45732;52.850;6.896;2023-02-19T06:04:09;6.35;;;2.88;;
59854;SDS011;45732;52.850;6.896;2023-02-19T06:06:35;6.60;;;2.90;;
59854;SDS011;45732;52.850;6.896;2023-02-19T06:09:01;6.95;;;2.63;;
59854;SDS011;45732;52.850;6.896;2023-02-19T06:11:28;7.47;;;2.83;;
59854;SDS011;45732;52.850;6.896;2023-02-19T06:13:54;5.60;;;2.80;;
59854;SDS011;45732;52.850;6.896;2023-02-19T06:16:19;5.10;;;2.65;;
59854;SDS011;45732;52.850;6.896;2023-02-19T06:18:46;5.22;;;2.80;;
59854;SDS011;45732;52.850;6.896;2023-02-19T06:21:12;7.07;;;2.60;;
59854;SDS011;45732;52.850;6.896;2023-02-19T06:23:39;5.97;;;2.90;;
59854;SDS011;45732;52.850;6.896;2023-02-19T06:28:39;6.35;;;2.63;;
59854;SDS011;45732;52.850;6.896;2023-02-19T06:31:06;8.50;;;2.88;;
59854;SDS011;45732;52.850;6.896;2023-02-19T06:33:32;7.95;;;3.20;;
59854;SDS011;45732;52.850;6.896;2023-02-19T06:35:59;6.32;;;2.92;;
59854;SDS011;45732;52.850;6.896;2023-02-19T06:38:26;6.50;;;3.00;;
59854;SDS011;45732;52.850;6.896;2023-02-19T06:40:52;8.57;;;3.30;;
59854;SDS011;45732;52.850;6.896;2023-02-19T06:43:18;6.50;;;3.17;;
59854;SDS011;45732;52.850;6.896;2023-02-19T06:45:44;10.57;;;3.60;;
59854;SDS011;45732;52.850;6.896;2023-02-19T06:48:09;6.80;;;3.38;;
59854;SDS011;45732;52.850;6.896;2023-02-19T06:50:35;8.45;;;3.70;;
59854;SDS011;45732;52.850;6.896;2023-02-19T06:53:01;8.05;;;3.63;;
59854;SDS011;45732;52.850;6.896;2023-02-19T06:55:27;5.70;;;3.20;;
59854;SDS011;45732;52.850;6.896;2023-02-19T06:57:52;10.60;;;3.88;;
59854;SDS011;45732;52.850;6.896;2023-02-19T07:00:18;7.95;;;4.40;;
59854;SDS011;45732;52.850;6.896;2023-02-19T07:02:44;8.18;;;3.85;;
59854;SDS011;45732;52.850;6.896;2023-02-19T07:05:09;7.88;;;3.70;;
59854;SDS011;45732;52.850;6.896;2023-02-19T07:07:35;9.10;;;4.18;;
59854;SDS011;45732;52.850;6.896;2023-02-19T07:10:01;7.78;;;3.75;;
59854;SDS011;45732;52.850;6.896;2023-02-19T07:12:27;9.15;;;3.80;;
59854;SDS011;45732;52.850;6.896;2023-02-19T07:14:53;8.30;;;3.67;;
59854;SDS011;45732;52.850;6.896;2023-02-19T07:17:19;7.55;;;3.95;;
59854;SDS011;45732;52.850;6.896;2023-02-19T07:19:44;8.32;;;3.70;;
59854;SDS011;45732;52.850;6.896;2023-02-19T07:22:10;8.45;;;3.90;;
59854;SDS011;45732;52.850;6.896;2023-02-19T07:24:36;8.55;;;4.30;;
59854;SDS011;45732;52.850;6.896;2023-02-19T07:27:01;9.50;;;4.47;;
59854;SDS011;45732;52.850;6.896;2023-02-19T07:29:27;10.32;;;4.82;;
59854;SDS011;45732;52.850;6.896;2023-02-19T07:31:53;9.18;;;4.60;;
59854;SDS011;45732;52.850;6.896;2023-02-19T07:34:18;9.75;;;4.32;;
59854;SDS011;45732;52.850;6.896;2023-02-19T07:36:44;10.35;;;4.88;;
59854;SDS011;45732;52.850;6.896;2023-02-19T07:39:11;13.50;;;5.05;;
59854;SDS011;45732;52.850;6.896;2023-02-19T07:41:37;8.80;;;4.72;;
59854;SDS011;45732;52.850;6.896;2023-02-19T07:44:03;10.52;;;4.75;;
59854;SDS011;45732;52.850;6.896;2023-02-19T07:46:29;11.02;;;4.72;;
59854;SDS011;45732;52.850;6.896;2023-02-19T07:48:56;9.32;;;4.30;;
59854;SDS011;45732;52.850;6.896;2023-02-19T07:51:21;9.68;;;4.57;;
59854;SDS011;45732;52.850;6.896;2023-02-19T07:53:48;9.82;;;5.10;;
59854;SDS011;45732;52.850;6.896;2023-02-19T07:56:14;7.82;;;3.90;;
59854;SDS011;45732;52.850;6.896;2023-02-19T07:58:40;7.78;;;3.67;;
59854;SDS011;45732;52.850;6.896;2023-02-19T08:03:38;8.80;;;3.97;;
59854;SDS011;45732;52.850;6.896;2023-02-19T08:06:07;7.60;;;3.25;;
59854;SDS011;45732;52.850;6.896;2023-02-19T08:08:35;7.18;;;3.33;;
59854;SDS011;45732;52.850;6.896;2023-02-19T08:11:01;7.90;;;3.40;;
59854;SDS011;45732;52.850;6.896;2023-02-19T08:13:50;7.88;;;3.80;;
59854;SDS011;45732;52.850;6.896;2023-02-19T08:16:17;8.95;;;4.60;;
59854;SDS011;45732;52.850;6.896;2023-02-19T08:18:44;7.90;;;3.95;;
59854;SDS011;45732;52.850;6.896;2023-02-19T08:21:11;7.00;;;4.28;;
59854;SDS011;45732;52.850;6.896;2023-02-19T08:23:37;8.10;;;4.38;;
59854;SDS011;45732;52.850;6.896;2023-02-19T08:26:03;7.05;;;3.63;;
59854;SDS011;45732;52.850;6.896;2023-02-19T08:28:30;6.43;;;3.33;;
59854;SDS011;45732;52.850;6.896;2023-02-19T08:30:57;6.68;;;3.38;;
59854;SDS011;45732;52.850;6.896;2023-02-19T08:33:24;8.45;;;3.80;;
59854;SDS011;45732;52.850;6.896;2023-02-19T08:35:50;6.82;;;3.40;;
59854;SDS011;45732;52.850;6.896;2023-02-19T08:38:16;6.88;;;3.13;;
59854;SDS011;45732;52.850;6.896;2023-02-19T08:40:41;6.93;;;3.35;;
59854;SDS011;45732;52.850;6.896;2023-02-19T08:43:09;6.00;;;3.00;;
59854;SDS011;45732;52.850;6.896;2023-02-19T08:45:37;6.15;;;2.88;;
59854;SDS011;45732;52.850;6.896;2023-02-19T08:48:04;4.97;;;2.80;;
59854;SDS011;45732;52.850;6.896;2023-02-19T08:50:30;7.32;;;3.20;;
59854;SDS011;45732;52.850;6.896;2023-02-19T08:53:00;4.95;;;2.95;;
59854;SDS011;45732;52.850;6.896;2023-02-19T08:55:27;5.57;;;2.90;;
59854;SDS011;45732;52.850;6.896;2023-02-19T08:57:53;4.85;;;2.60;;
59854;SDS011;45732;52.850;6.896;2023-02-19T09:00:19;4.50;;;2.55;;
59854;SDS011;45732;52.850;6.896;2023-02-19T09:02:45;6.95;;;3.00;;
59854;SDS011;45732;52.850;6.896;2023-02-19T09:05:12;6.80;;;3.40;;
59854;SDS011;45732;52.850;6.896;2023-02-19T09:07:38;5.80;;;3.13;;
59854;SDS011;45732;52.850;6.896;2023-02-19T09:10:04;6.43;;;3.13;;
59854;SDS011;45732;52.850;6.896;2023-02-19T09:12:29;4.78;;;2.42;;
59854;SDS011;45732;52.850;6.896;2023-02-19T09:14:57;6.22;;;2.80;;
59854;SDS011;45732;52.850;6.896;2023-02-19T09:17:23;6.82;;;3.83;;
59854;SDS011;45732;52.850;6.896;2023-02-19T09:19:49;6.32;;;2.90;;
59854;SDS011;45732;52.850;6.896;2023-02-19T09:22:14;7.32;;;2.95;;
59854;SDS011;45732;52.850;6.896;2023-02-19T09:24:41;9.95;;;2.97;;
59854;SDS011;45732;52.850;6.896;2023-02-19T09:27:07;6.03;;;2.85;;
59854;SDS011;45732;52.850;6.896;2023-02-19T09:29:34;5.07;;;2.90;;
59854;SDS011;45732;52.850;6.896;2023-02-19T09:32:00;5.32;;;2.78;;
59854;SDS011;45732;52.850;6.896;2023-02-19T09:34:26;7.20;;;3.28;;
59854;SDS011;45732;52.850;6.896;2023-02-19T09:36:53;4.30;;;2.17;;
59854;SDS011;45732;52.850;6.896;2023-02-19T09:39:19;5.38;;;2.42;;
59854;SDS011;45732;52.850;6.896;2023-02-19T09:41:49;3.85;;;2.00;;
59854;SDS011;45732;52.850;6.896;2023-02-19T09:44:22;5.38;;;2.40;;
59854;SDS011;45732;52.850;6.896;2023-02-19T09:46:53;5.68;;;2.50;;
59854;SDS011;45732;52.850;6.896;2023-02-19T09:51:59;5.65;;;2.63;;
59854;SDS011;45732;52.850;6.896;2023-02-19T09:54:31;5.35;;;2.30;;
59854;SDS011;45732;52.850;6.896;2023-02-19T09:56:59;3.80;;;2.10;;
59854;SDS011;45732;52.850;6.896;2023-02-19T09:59:28;3.05;;;1.60;;
59854;SDS011;45732;52.850;6.896;2023-02-19T10:02:04;4.32;;;2.08;;
59854;SDS011;45732;52.850;6.896;2023-02-19T10:04:39;6.50;;;2.67;;
59854;SDS011;45732;52.850;6.896;2023-02-19T10:07:14;5.13;;;2.08;;
59854;SDS011;45732;52.850;6.896;2023-02-19T10:09:54;4.80;;;1.90;;
59854;SDS011;45732;52.850;6.896;2023-02-19T10:12:28;4.07;;;2.00;;
59854;SDS011;45732;52.850;6.896;2023-02-19T10:15:08;3.05;;;1.88;;
59854;SDS011;45732;52.850;6.896;2023-02-19T10:17:39;3.38;;;1.92;;
59854;SDS011;45732;52.850;6.896;2023-02-19T10:20:05;4.47;;;2.10;;
59854;SDS011;45732;52.850;6.896;2023-02-19T10:22:34;3.67;;;2.00;;
59854;SDS011;45732;52.850;6.896;2023-02-19T10:25:02;3.67;;;1.80;;
59854;SDS011;45732;52.850;6.896;2023-02-19T10:27:29;3.72;;;1.60;;
59854;SDS011;45732;52.850;6.896;2023-02-19T10:29:55;5.47;;;1.70;;
59854;SDS011;45732;52.850;6.896;2023-02-19T10:32:23;2.50;;;1.20;;
59854;SDS011;45732;52.850;6.896;2023-02-19T10:35:13;5.57;;;1.45;;
59854;SDS011;45732;52.850;6.896;2023-02-19T10:37:47;5.05;;;1.20;;
59854;SDS011;45732;52.850;6.896;2023-02-19T10:40:24;3.28;;;1.35;;
59854;SDS011;45732;52.850;6.896;2023-02-19T10:42:53;2.90;;;1.10;;
59854;SDS011;45732;52.850;6.896;2023-02-19T10:48:02;4.45;;;1.10;;
59854;SDS011;45732;52.850;6.896;2023-02-19T10:50:30;2.63;;;0.80;;
59854;SDS011;45732;52.850;6.896;2023-02-19T10:52:59;3.47;;;1.02;;
59854;SDS011;45732;52.850;6.896;2023-02-19T10:57:54;3.70;;;0.80;;
59854;SDS011;45732;52.850;6.896;2023-02-19T11:00:27;3.95;;;1.20;;
59854;SDS011;45732;52.850;6.896;2023-02-19T11:03:16;4.20;;;1.08;;
59854;SDS011;45732;52.850;6.896;2023-02-19T11:05:53;3.72;;;0.82;;
59854;SDS011;45732;52.850;6.896;2023-02-19T11:08:27;2.57;;;0.83;;
59854;SDS011;45732;52.850;6.896;2023-02-19T11:10:54;3.08;;;0.80;;
59854;SDS011;45732;52.850;6.896;2023-02-19T11:13:30;2.90;;;1.00;;
59854;SDS011;45732;52.850;6.896;2023-02-19T11:16:02;4.20;;;0.90;;
59854;SDS011;45732;52.850;6.896;2023-02-19T11:18:32;3.83;;;0.70;;
59854;SDS011;45732;52.850;6.896;2023-02-19T11:21:03;1.52;;;0.82;;
59854;SDS011;45732;52.850;6.896;2023-02-19T11:23:31;4.18;;;1.10;;
59854;SDS011;45732;52.850;6.896;2023-02-19T11:26:00;2.95;;;1.20;;
59854;SDS011;45732;52.850;6.896;2023-02-19T11:28:33;2.95;;;1.10;;
59854;SDS011;45732;52.850;6.896;2023-02-19T11:31:12;3.38;;;0.95;;
59854;SDS011;45732;52.850;6.896;2023-02-19T11:33:45;4.00;;;1.08;;
59854;SDS011;45732;52.850;6.896;2023-02-19T11:36:35;2.28;;;0.80;;
59854;SDS011;45732;52.850;6.896;2023-02-19T11:52:55;3.10;;;0.90;;
59854;SDS011;45732;52.850;6.896;2023-02-19T12:04:07;3.75;;;0.90;;
59854;SDS011;45732;52.850;6.896;2023-02-19T12:15:34;4.95;;;1.88;;
59854;SDS011;45732;52.850;6.896;2023-02-19T12:18:41;4.28;;;1.10;;
59854;SDS011;45732;52.850;6.896;2023-02-19T12:37:06;4.03;;;1.48;;
59854;SDS011;45732;52.850;6.896;2023-02-19T12:46:02;6.20;;;1.67;;
59854;SDS011;45732;52.850;6.896;2023-02-19T12:51:11;2.85;;;1.30;;
59854;SDS011;45732;52.850;6.896;2023-02-19T12:56:19;3.45;;;1.05;;
59854;SDS011;45732;52.850;6.896;2023-02-19T12:58:53;3.03;;;1.38;;
59854;SDS011;45732;52.850;6.896;2023-02-19T13:01:27;2.08;;;1.20;;
59854;SDS011;45732;52.850;6.896;2023-02-19T13:04:11;5.07;;;1.60;;
59854;SDS011;45732;52.850;6.896;2023-02-19T13:06:53;4.85;;;1.08;;
59854;SDS011;45732;52.850;6.896;2023-02-19T13:09:32;3.65;;;1.20;;
59854;SDS011;45732;52.850;6.896;2023-02-19T13:12:23;6.40;;;1.20;;
59854;SDS011;45732;52.850;6.896;2023-02-19T13:15:01;3.33;;;1.23;;
59854;SDS011;45732;52.850;6.896;2023-02-19T13:17:39;2.58;;;1.10;;
59854;SDS011;45732;52.850;6.896;2023-02-19T13:20:56;3.08;;;1.38;;
59854;SDS011;45732;52.850;6.896;2023-02-19T13:35:24;2.60;;;0.80;;
59854;SDS011;45732;52.850;6.896;2023-02-19T13:38:13;3.33;;;1.30;;
59854;SDS011;45732;52.850;6.896;2023-02-19T13:40:40;2.63;;;0.90;;
59854;SDS011;45732;52.850;6.896;2023-02-19T13:43:21;2.53;;;0.80;;
59854;SDS011;45732;52.850;6.896;2023-02-19T13:45:52;2.55;;;0.90;;
59854;SDS011;45732;52.850;6.896;2023-02-19T13:53:48;3.80;;;0.90;;
59854;SDS011;45732;52.850;6.896;2023-02-19T14:19:56;4.15;;;0.60;;
59854;SDS011;45732;52.850;6.896;2023-02-19T14:27:51;3.80;;;1.02;;
59854;SDS011;45732;52.850;6.896;2023-02-19T14:30:21;3.30;;;0.65;;
59854;SDS011;45732;52.850;6.896;2023-02-19T14:32:48;3.83;;;0.80;;
59854;SDS011;45732;52.850;6.896;2023-02-19T14:35:21;4.45;;;1.10;;
59854;SDS011;45732;52.850;6.896;2023-02-19T14:37:55;2.92;;;0.73;;
59854;SDS011;45732;52.850;6.896;2023-02-19T14:40:32;1.98;;;0.50;;
59854;SDS011;45732;52.850;6.896;2023-02-19T14:43:03;2.42;;;0.80;;
59854;SDS011;45732;52.850;6.896;2023-02-19T14:45:31;3.22;;;0.88;;
59854;SDS011;45732;52.850;6.896;2023-02-19T14:48:05;1.48;;;0.75;;
59854;SDS011;45732;52.850;6.896;2023-02-19T14:50:33;3.50;;;0.70;;
59854;SDS011;45732;52.850;6.896;2023-02-19T14:53:02;2.83;;;0.75;;
59854;SDS011;45732;52.850;6.896;2023-02-19T14:55:30;2.72;;;0.80;;
59854;SDS011;45732;52.850;6.896;2023-02-19T14:58:05;3.80;;;0.70;;
59854;SDS011;45732;52.850;6.896;2023-02-19T15:00:36;3.42;;;0.93;;
59854;SDS011;45732;52.850;6.896;2023-02-19T15:03:04;2.40;;;0.70;;
59854;SDS011;45732;52.850;6.896;2023-02-19T15:05:34;3.97;;;0.90;;
59854;SDS011;45732;52.850;6.896;2023-02-19T15:08:11;2.05;;;0.77;;
59854;SDS011;45732;52.850;6.896;2023-02-19T15:10:43;2.83;;;0.63;;
59854;SDS011;45732;52.850;6.896;2023-02-19T15:13:09;3.20;;;0.90;;
59854;SDS011;45732;52.850;6.896;2023-02-19T15:15:42;3.17;;;0.85;;
59854;SDS011;45732;52.850;6.896;2023-02-19T15:18:14;4.25;;;1.00;;
59854;SDS011;45732;52.850;6.896;2023-02-19T15:20:44;2.55;;;0.68;;
59854;SDS011;45732;52.850;6.896;2023-02-19T15:23:10;4.18;;;1.15;;
59854;SDS011;45732;52.850;6.896;2023-02-19T15:25:44;3.55;;;1.05;;
59854;SDS011;45732;52.850;6.896;2023-02-19T15:28:17;5.40;;;0.80;;
59854;SDS011;45732;52.850;6.896;2023-02-19T15:30:44;3.60;;;0.70;;
59854;SDS011;45732;52.850;6.896;2023-02-19T15:33:15;2.80;;;0.80;;
59854;SDS011;45732;52.850;6.896;2023-02-19T15:35:46;1.67;;;0.70;;
59854;SDS011;45732;52.850;6.896;2023-02-19T15:38:13;1.92;;;0.65;;
59854;SDS011;45732;52.850;6.896;2023-02-19T15:40:39;2.28;;;0.80;;
59854;SDS011;45732;52.850;6.896;2023-02-19T15:43:13;3.30;;;0.75;;
59854;SDS011;45732;52.850;6.896;2023-02-19T15:45:49;3.03;;;0.95;;
59854;SDS011;45732;52.850;6.896;2023-02-19T15:48:20;1.90;;;0.73;;
59854;SDS011;45732;52.850;6.896;2023-02-19T15:50:52;1.83;;;0.80;;
59854;SDS011;45732;52.850;6.896;2023-02-19T15:53:26;3.80;;;1.02;;
59854;SDS011;45732;52.850;6.896;2023-02-19T15:59:37;2.20;;;0.80;;
59854;SDS011;45732;52.850;6.896;2023-02-19T16:01:56;1.67;;;0.77;;
59854;SDS011;45732;52.850;6.896;2023-02-19T16:04:24;2.53;;;0.90;;
59854;SDS011;45732;52.850;6.896;2023-02-19T16:09:19;3.97;;;1.08;;
59854;SDS011;45732;52.850;6.896;2023-02-19T16:11:55;3.00;;;0.85;;
59854;SDS011;45732;52.850;6.896;2023-02-19T16:17:04;3.28;;;1.00;;
59854;SDS011;45732;52.850;6.896;2023-02-19T16:19:57;3.28;;;1.10;;
59854;SDS011;45732;52.850;6.896;2023-02-19T16:22:24;2.55;;;1.13;;
59854;SDS011;45732;52.850;6.896;2023-02-19T16:24:54;2.25;;;0.90;;
59854;SDS011;45732;52.850;6.896;2023-02-19T16:30:20;2.55;;;1.00;;
59854;SDS011;45732;52.850;6.896;2023-02-19T16:35:57;3.40;;;1.00;;
59854;SDS011;45732;52.850;6.896;2023-02-19T16:38:39;4.80;;;1.33;;
59854;SDS011;45732;52.850;6.896;2023-02-19T16:41:09;4.60;;;1.42;;
59854;SDS011;45732;52.850;6.896;2023-02-19T16:43:37;4.03;;;1.10;;
59854;SDS011;45732;52.850;6.896;2023-02-19T16:46:06;4.10;;;1.10;;
59854;SDS011;45732;52.850;6.896;2023-02-19T16:48:34;3.20;;;1.20;;
59854;SDS011;45732;52.850;6.896;2023-02-19T16:51:00;3.78;;;1.50;;
59854;SDS011;45732;52.850;6.896;2023-02-19T16:53:28;2.80;;;1.20;;
59854;SDS011;45732;52.850;6.896;2023-02-19T16:55:54;3.10;;;1.10;;
59854;SDS011;45732;52.850;6.896;2023-02-19T16:58:20;3.38;;;1.40;;
59854;SDS011;45732;52.850;6.896;2023-02-19T17:00:46;3.92;;;1.30;;
59854;SDS011;45732;52.850;6.896;2023-02-19T17:03:13;4.18;;;1.30;;
59854;SDS011;45732;52.850;6.896;2023-02-19T17:05:41;3.78;;;1.35;;
59854;SDS011;45732;52.850;6.896;2023-02-19T17:11:02;4.05;;;1.40;;
59854;SDS011;45732;52.850;6.896;2023-02-19T17:13:30;3.78;;;1.50;;
59854;SDS011;45732;52.850;6.896;2023-02-19T17:15:56;4.28;;;1.80;;
59854;SDS011;45732;52.850;6.896;2023-02-19T17:18:22;5.43;;;1.60;;
59854;SDS011;45732;52.850;6.896;2023-02-19T17:20:49;5.22;;;1.50;;
59854;SDS011;45732;52.850;6.896;2023-02-19T17:23:40;6.07;;;1.50;;
59854;SDS011;45732;52.850;6.896;2023-02-19T17:26:05;3.05;;;1.42;;
59854;SDS011;45732;52.850;6.896;2023-02-19T17:28:33;4.88;;;1.52;;
59854;SDS011;45732;52.850;6.896;2023-02-19T17:30:59;4.55;;;1.30;;
59854;SDS011;45732;52.850;6.896;2023-02-19T17:33:24;3.47;;;1.38;;
59854;SDS011;45732;52.850;6.896;2023-02-19T17:35:50;4.40;;;1.60;;
59854;SDS011;45732;52.850;6.896;2023-02-19T17:38:16;5.82;;;1.40;;
59854;SDS011;45732;52.850;6.896;2023-02-19T17:40:41;4.93;;;1.50;;
59854;SDS011;45732;52.850;6.896;2023-02-19T17:43:09;5.05;;;1.30;;